Allendale County Airport

KAQX

Allendale, US

Airport Type
small airport

Climate Statistics

Average Temperature
22°C
Last 48 hours
Average Wind Speed
4.6 kt
Last 48 hours
Average Visibility
9.9 km
Last 48 hours
Average Pressure
3032 hPa
Last 48 hours

Note: Averages calculated from last 48 hours of METAR observations (50 records).

Historical METAR Observations

Time Code Weather Temp Visibility Ceiling Wind METAR/SPECI
02:15 V ☀️ 19°C 10 SM - 150° 6 kt METAR KAQX 130215Z AUTO 15006KT 10SM CLR 19/15 A3034 RMK AO2
01:55 V ☀️ 20°C 10 SM - 150° 5 kt METAR KAQX 130155Z AUTO 15005KT 10SM CLR 20/15 A3033 RMK AO2
01:35 V ☀️ 20°C 9 SM - 140° 6 kt METAR KAQX 130135Z AUTO 14006KT 9SM CLR 20/15 A3033 RMK AO2
01:15 V ☀️ 21°C 10 SM - 140° 7 kt METAR KAQX 130115Z AUTO 14007KT 10SM CLR 21/15 A3032 RMK AO2
00:55 V ☀️ 22°C 10 SM - 140° 6 kt METAR KAQX 130055Z AUTO 14006KT 10SM CLR 22/15 A3032 RMK AO2
00:35 V ☀️ 22°C 10 SM - 140° 6 kt METAR KAQX 130035Z AUTO 14006KT 10SM CLR 22/15 A3032 RMK AO2
00:15 V ☀️ 23°C 10 SM - 140° 8 kt METAR KAQX 130015Z AUTO 14008KT 10SM CLR 23/14 A3031 RMK AO2
23:55 V ☀️ 24°C 10 SM - 140° 6 kt METAR KAQX 122355Z AUTO 14006KT 10SM CLR 24/13 A3031 RMK AO2
23:35 V ☀️ 25°C 10 SM - 140° 9 kt METAR KAQX 122335Z AUTO 14009KT 10SM CLR 25/12 A3030 RMK AO2
23:15 V ☀️ 26°C 10 SM - 150° 11 kt METAR KAQX 122315Z AUTO 15011KT 10SM CLR 26/12 A3030 RMK AO2
22:55 V ☀️ 26°C 10 SM - 140° 9 kt METAR KAQX 122255Z AUTO 14009KT 10SM CLR 26/12 A3030 RMK AO2
22:35 V ☀️ 27°C 10 SM - 160° 9 kt METAR KAQX 122235Z AUTO 16009KT 10SM CLR 27/11 A3030 RMK AO2
22:15 V ☀️ 28°C 10 SM - 150° 10 kt METAR KAQX 122215Z AUTO 15010KT 10SM CLR 28/09 A3029 RMK AO2
21:55 V ☀️ 28°C 10 SM - 170° 10 kt METAR KAQX 122155Z AUTO 17010KT 10SM CLR 28/10 A3029 RMK AO2
21:35 V ☀️ 28°C 10 SM - 150° 11 kt METAR KAQX 122135Z AUTO 15011KT 10SM CLR 28/11 A3028 RMK AO2
21:15 V ☀️ 28°C 10 SM - 140° 11 kt METAR KAQX 122115Z AUTO 14011G17KT 10SM CLR 28/11 A3028 RMK AO2
20:55 V ☀️ 28°C 10 SM - 140° 10 kt METAR KAQX 122055Z AUTO 14010KT 10SM CLR 28/10 A3028 RMK AO2
20:35 V 29°C 10 SM - 150° 9 kt METAR KAQX 122035Z AUTO 15009KT 10SM FEW070 FEW090 29/10 A3028 RMK AO2
20:15 V 28°C 10 SM - 110° 6 kt METAR KAQX 122015Z AUTO 11006KT 10SM FEW070 FEW090 28/10 A3028 RMK AO2
19:55 V 28°C 10 SM - 130° 8 kt METAR KAQX 121955Z AUTO 13008KT 10SM FEW075 28/11 A3029 RMK AO2
19:35 V 29°C 10 SM - 130° 7 kt METAR KAQX 121935Z AUTO 13007G15KT 10SM FEW075 29/10 A3030 RMK AO2
19:15 V 29°C 10 SM - VRB° 6 kt METAR KAQX 121915Z AUTO VRB06G14KT 10SM FEW070 29/10 A3030 RMK AO2
18:55 V ☀️ 29°C 10 SM - 140° 9 kt METAR KAQX 121855Z AUTO 14009G14KT 10SM CLR 29/10 A3031 RMK AO2
18:35 V ☀️ 28°C 10 SM - 0° 0 kt METAR KAQX 121835Z AUTO 00000G11KT 10SM CLR 28/10 A3032 RMK AO2
18:15 V ☀️ 28°C 8 SM - 170° 4 kt METAR KAQX 121815Z AUTO 17004G13KT 8SM CLR 28/10 A3032 RMK AO2
17:35 V ☀️ 27°C 10 SM - 180° 8 kt METAR KAQX 121735Z AUTO 18008KT 140V200 10SM CLR 27/10 A3034 RMK AO2
17:15 V ☀️ 27°C 10 SM - 120° 6 kt METAR KAQX 121715Z AUTO 12006KT 10SM CLR 27/10 A3035 RMK AO2
16:55 V ☀️ 26°C 10 SM - VRB° 4 kt METAR KAQX 121655Z AUTO VRB04G10KT 10SM CLR 26/10 A3035 RMK AO2
16:35 V ☀️ 26°C 10 SM - 160° 9 kt METAR KAQX 121635Z AUTO 16009KT 130V190 10SM CLR 26/10 A3035 RMK AO2
16:15 V ☀️ 25°C 10 SM - 170° 6 kt METAR KAQX 121615Z AUTO 17006KT 10SM CLR 25/10 A3036 RMK AO2
15:55 V ☀️ 25°C 10 SM - 0° 0 kt METAR KAQX 121555Z AUTO 00000G10KT 10SM CLR 25/11 A3036 RMK AO2
15:35 V ☀️ 25°C 10 SM - 0° 0 kt METAR KAQX 121535Z AUTO 00000KT 10SM CLR 25/12 A3037 RMK AO2
15:15 V ☀️ 24°C 10 SM - 160° 5 kt METAR KAQX 121515Z AUTO 16005KT 10SM CLR 24/12 A3036 RMK AO2
14:55 V ☀️ 23°C 10 SM - 0° 0 kt METAR KAQX 121455Z AUTO 00000KT 10SM CLR 23/12 A3036 RMK AO2
14:35 V ☀️ 22°C 10 SM - VRB° 4 kt METAR KAQX 121435Z AUTO VRB04KT 10SM CLR 22/13 A3036 RMK AO2
14:15 V ☀️ 22°C 10 SM - 0° 0 kt METAR KAQX 121415Z AUTO 00000KT 10SM CLR 22/13 A3036 RMK AO2
13:55 V ☀️ 20°C 10 SM - 0° 0 kt METAR KAQX 121355Z AUTO 00000KT 10SM CLR 20/12 A3035 RMK AO2
13:35 V ☀️ 19°C 10 SM - 0° 0 kt METAR KAQX 121335Z AUTO 00000KT 10SM CLR 19/11 A3035 RMK AO2
13:15 V ☀️ 19°C 10 SM - 0° 0 kt METAR KAQX 121315Z AUTO 00000KT 10SM CLR 19/10 A3034 RMK AO2
12:55 V ☀️ 16°C 10 SM - 0° 0 kt METAR KAQX 121255Z AUTO 00000KT 10SM CLR 16/10 A3034 RMK AO2
12:35 V ☀️ 14°C 10 SM - 0° 0 kt METAR KAQX 121235Z AUTO 00000KT 10SM CLR 14/10 A3034 RMK AO2
12:15 V ☀️ 13°C 10 SM - 0° 0 kt METAR KAQX 121215Z AUTO 00000KT 10SM CLR 13/10 A3034 RMK AO2
11:55 V ☀️ 11°C 10 SM - 0° 0 kt METAR KAQX 121155Z AUTO 00000KT 10SM CLR 11/09 A3033 RMK AO2
11:35 V ☀️ 11°C 10 SM - 0° 0 kt METAR KAQX 121135Z AUTO 00000KT 10SM CLR 11/09 A3032 RMK AO2
11:15 V ☀️ 10°C 10 SM - 0° 0 kt METAR KAQX 121115Z AUTO 00000KT 10SM CLR 10/09 A3032 RMK AO2
10:55 V ☀️ 10°C 10 SM - 0° 0 kt METAR KAQX 121055Z AUTO 00000KT 10SM CLR 10/09 A3031 RMK AO2
10:35 V ☀️ 11°C 10 SM - 0° 0 kt METAR KAQX 121035Z AUTO 00000KT 10SM CLR 11/09 A3030 RMK AO2
10:15 V ☀️ 10°C 10 SM - 0° 0 kt METAR KAQX 121015Z AUTO 00000KT 10SM CLR 10/09 A3029 RMK AO2
09:55 V ☀️ 10°C 10 SM - 0° 0 kt METAR KAQX 120955Z AUTO 00000KT 10SM CLR 10/09 A3028 RMK AO2
09:35 V ☀️ 11°C 10 SM - 0° 0 kt METAR KAQX 120935Z AUTO 00000KT 10SM CLR 11/09 A3028 RMK AO2